createdAt,value
2024-03-08T00:00:53.748Z,1064.00
2024-03-08T00:01:53.841Z,1073.00
2024-03-08T00:02:53.913Z,1067.00
2024-03-08T00:03:53.926Z,1068.00
2024-03-08T00:04:53.979Z,1062.00
2024-03-08T00:05:54.145Z,1071.00
2024-03-08T00:06:54.092Z,1069.00
2024-03-08T00:07:54.167Z,1062.00
2024-03-08T00:08:54.249Z,1064.00
2024-03-08T00:09:54.226Z,1062.00
2024-03-08T00:10:54.362Z,1066.00
2024-03-08T00:11:54.398Z,1067.00
2024-03-08T00:12:54.410Z,1070.00
2024-03-08T00:13:54.436Z,1061.00
2024-03-08T00:14:54.554Z,1063.00
2024-03-08T00:15:54.586Z,1051.00
2024-03-08T00:16:54.631Z,1055.00
2024-03-08T00:17:54.850Z,1064.00
2024-03-08T00:18:54.871Z,1059.00
2024-03-08T00:19:54.841Z,1060.00
2024-03-08T00:20:54.923Z,1055.00
2024-03-08T00:21:55.054Z,1069.00
2024-03-08T00:22:55.075Z,1059.00
2024-03-08T00:23:55.240Z,1056.00
2024-03-08T00:24:55.177Z,1058.00
2024-03-08T00:25:55.209Z,1057.00
2024-03-08T00:26:55.345Z,1062.00
2024-03-08T00:27:55.336Z,1059.00
2024-03-08T00:28:55.406Z,1048.00
2024-03-08T00:29:55.574Z,1043.00
2024-03-08T00:30:55.545Z,1053.00
2024-03-08T00:31:55.626Z,1057.00
2024-03-08T00:32:55.817Z,1050.00
2024-03-08T00:33:55.928Z,1045.00
2024-03-08T00:34:55.857Z,1046.00
2024-03-08T00:35:56.005Z,1049.00
2024-03-08T00:36:55.980Z,1053.00
2024-03-08T00:37:56.084Z,1044.00
2024-03-08T00:38:56.240Z,1050.00
2024-03-08T00:39:56.184Z,1057.00
2024-03-08T00:40:56.257Z,1049.00
2024-03-08T00:41:56.338Z,1045.00
2024-03-08T00:42:56.408Z,1048.00
2024-03-08T00:43:56.431Z,1046.00
2024-03-08T00:44:56.514Z,1045.00
2024-03-08T00:45:56.529Z,1040.00
2024-03-08T00:46:56.617Z,1049.00
2024-03-08T00:47:56.833Z,1044.00
2024-03-08T00:48:56.806Z,1038.00
2024-03-08T00:49:56.803Z,1031.00
2024-03-08T00:50:56.904Z,1041.00
2024-03-08T00:51:56.887Z,1035.00
2024-03-08T00:52:56.943Z,1045.00
2024-03-08T00:53:57.076Z,1043.00
2024-03-08T00:54:57.081Z,1034.00
2024-03-08T00:55:57.145Z,1039.00
2024-03-08T00:56:57.248Z,1034.00
2024-03-08T00:57:57.271Z,1035.00
2024-03-08T00:58:57.342Z,1045.00
2024-03-08T00:59:57.504Z,1026.00
2024-03-08T01:00:57.468Z,1032.00
2024-03-08T01:01:57.506Z,1031.00
2024-03-08T01:02:57.630Z,1036.00
2024-03-08T01:03:57.617Z,1030.00
2024-03-08T01:04:57.677Z,1033.00
2024-03-08T01:05:57.826Z,1039.00
2024-03-08T01:06:57.791Z,1026.00
2024-03-08T01:07:57.856Z,1027.00
2024-03-08T01:08:57.972Z,1036.00
2024-03-08T01:09:57.998Z,1038.00
2024-03-08T01:10:58.070Z,1027.00
2024-03-08T01:11:58.168Z,1034.00
2024-03-08T01:12:58.185Z,1017.00
2024-03-08T01:13:58.216Z,1026.00
2024-03-08T01:14:58.361Z,1031.00
2024-03-08T01:15:58.338Z,1034.00
2024-03-08T01:16:58.421Z,1025.00
2024-03-08T01:17:58.673Z,1031.00
2024-03-08T01:18:58.722Z,1022.00
2024-03-08T01:19:58.582Z,1026.00
2024-03-08T01:20:58.668Z,1024.00
2024-03-08T01:21:58.673Z,1030.00
2024-03-08T01:22:58.734Z,1014.00
2024-03-08T01:23:58.845Z,1019.00
2024-03-08T01:24:58.845Z,1022.00
2024-03-08T01:25:58.932Z,1021.00
2024-03-08T01:26:58.957Z,1016.00
2024-03-08T01:27:59.021Z,1013.00
2024-03-08T01:28:59.077Z,1007.00
2024-03-08T01:29:59.228Z,1014.00
2024-03-08T01:30:59.181Z,1014.00
2024-03-08T01:31:59.266Z,1014.00
2024-03-08T01:32:59.393Z,1020.00
2024-03-08T01:33:59.482Z,1016.00
2024-03-08T01:34:59.497Z,1014.00
2024-03-08T01:35:59.619Z,1004.00
2024-03-08T01:36:59.724Z,1013.00
2024-03-08T01:37:59.705Z,1021.00
2024-03-08T01:38:59.791Z,1009.00
2024-03-08T01:39:59.825Z,1012.00
2024-03-08T01:40:59.883Z,1006.00
2024-03-08T01:41:59.956Z,1008.00
2024-03-08T01:43:00.041Z,1011.00
2024-03-08T01:44:00.112Z,1011.00
2024-03-08T01:45:00.250Z,1014.00
2024-03-08T01:46:00.241Z,993.00
2024-03-08T01:47:00.352Z,1006.00
2024-03-08T01:48:00.463Z,1004.00
2024-03-08T01:49:00.517Z,1007.00
2024-03-08T01:50:00.514Z,1006.00
2024-03-08T01:51:00.681Z,1009.00
2024-03-08T01:52:00.790Z,1006.00
2024-03-08T01:53:00.796Z,1003.00
2024-03-08T01:54:00.801Z,1000.00
2024-03-08T01:55:00.859Z,1002.00
2024-03-08T01:56:00.969Z,999.00
2024-03-08T01:57:01.094Z,992.00
2024-03-08T01:58:01.067Z,999.00
2024-03-08T01:59:01.118Z,993.00
2024-03-08T02:00:01.255Z,995.00
2024-03-08T02:01:01.296Z,992.00
2024-03-08T02:02:01.326Z,986.00
2024-03-08T02:03:01.441Z,992.00
2024-03-08T02:04:01.476Z,992.00
2024-03-08T02:05:01.568Z,997.00
2024-03-08T02:06:01.638Z,995.00
2024-03-08T02:07:01.671Z,985.00
2024-03-08T02:08:01.771Z,991.00
2024-03-08T02:09:01.837Z,995.00
2024-03-08T02:10:01.935Z,989.00
2024-03-08T02:11:01.976Z,990.00
2024-03-08T02:12:02.053Z,994.00
2024-03-08T02:13:02.113Z,988.00
2024-03-08T02:14:02.157Z,993.00
2024-03-08T02:15:02.334Z,984.00
2024-03-08T02:16:02.315Z,979.00
2024-03-08T02:17:02.351Z,988.00
2024-03-08T02:18:02.530Z,974.00
2024-03-08T02:19:02.518Z,985.00
2024-03-08T02:20:02.586Z,983.00
2024-03-08T02:21:02.669Z,971.00
2024-03-08T02:22:02.719Z,979.00
2024-03-08T02:23:02.805Z,993.00
2024-03-08T02:24:02.908Z,979.00
2024-03-08T02:25:02.932Z,985.00
2024-03-08T02:26:03.076Z,976.00
2024-03-08T02:27:03.172Z,973.00
2024-03-08T02:28:03.192Z,978.00
2024-03-08T02:29:03.190Z,976.00
2024-03-08T02:30:03.361Z,974.00
2024-03-08T02:31:03.407Z,976.00
2024-03-08T02:32:03.406Z,978.00
2024-03-08T02:33:03.739Z,969.00
2024-03-08T02:34:03.548Z,976.00
2024-03-08T02:35:03.635Z,975.00
2024-03-08T02:36:03.717Z,980.00
2024-03-08T02:37:03.782Z,971.00
2024-03-08T02:38:03.858Z,977.00
2024-03-08T02:39:03.951Z,974.00
2024-03-08T02:40:03.974Z,972.00
2024-03-08T02:41:04.026Z,972.00
2024-03-08T02:42:04.135Z,968.00
2024-03-08T02:43:04.205Z,964.00
2024-03-08T02:44:04.229Z,972.00
2024-03-08T02:45:04.384Z,962.00
2024-03-08T02:46:04.386Z,968.00
2024-03-08T02:47:04.446Z,971.00
2024-03-08T02:48:04.644Z,965.00
2024-03-08T02:49:04.563Z,967.00
2024-03-08T02:50:04.643Z,968.00
2024-03-08T02:51:04.769Z,961.00
2024-03-08T02:52:04.767Z,968.00
2024-03-08T02:53:04.901Z,962.00
2024-03-08T02:54:04.944Z,960.00
2024-03-08T02:55:04.976Z,967.00
2024-03-08T02:56:05.046Z,959.00
2024-03-08T02:57:05.143Z,968.00
2024-03-08T02:58:05.172Z,959.00
2024-03-08T02:59:05.207Z,969.00
2024-03-08T03:00:05.391Z,954.00
2024-03-08T03:01:05.352Z,963.00
2024-03-08T03:02:05.399Z,961.00
2024-03-08T03:03:05.600Z,952.00
2024-03-08T03:04:05.532Z,958.00
2024-03-08T03:05:05.599Z,952.00
2024-03-08T03:06:05.692Z,954.00
2024-03-08T03:07:05.731Z,947.00
2024-03-08T03:08:05.866Z,963.00
2024-03-08T03:09:05.865Z,958.00
2024-03-08T03:10:05.939Z,954.00
2024-03-08T03:11:06.001Z,957.00
2024-03-08T03:12:06.104Z,952.00
2024-03-08T03:13:06.496Z,946.00
2024-03-08T03:14:06.170Z,950.00
2024-03-08T03:15:06.257Z,944.00
2024-03-08T03:16:06.271Z,960.00
2024-03-08T03:17:06.307Z,953.00
2024-03-08T03:18:06.442Z,945.00
2024-03-08T03:19:06.396Z,947.00
2024-03-08T03:20:06.438Z,947.00
2024-03-08T03:21:06.539Z,943.00
2024-03-08T03:22:06.528Z,947.00
2024-03-08T03:23:06.620Z,944.00
2024-03-08T03:24:06.679Z,950.00
2024-03-08T03:25:06.680Z,948.00
2024-03-08T03:26:06.708Z,945.00
2024-03-08T03:27:06.844Z,937.00
2024-03-08T03:28:06.848Z,943.00
2024-03-08T03:29:06.873Z,936.00
2024-03-08T03:30:07.079Z,937.00
2024-03-08T03:31:09.581Z,947.00
2024-03-08T03:32:06.939Z,944.00
2024-03-08T03:33:07.138Z,942.00
2024-03-08T03:34:06.959Z,939.00
2024-03-08T03:35:06.954Z,940.00
2024-03-08T03:36:07.000Z,954.00
2024-03-08T03:37:06.949Z,934.00
2024-03-08T03:38:07.199Z,938.00
2024-03-08T03:39:07.079Z,938.00
2024-03-08T03:40:06.973Z,937.00
2024-03-08T03:41:06.979Z,941.00
2024-03-08T03:42:07.035Z,942.00
2024-03-08T03:43:07.108Z,939.00
2024-03-08T03:44:06.963Z,929.00
2024-03-08T03:45:07.082Z,933.00
2024-03-08T03:46:06.982Z,931.00
2024-03-08T03:47:06.974Z,933.00
2024-03-08T03:48:07.080Z,932.00
2024-03-08T03:49:06.976Z,928.00
2024-03-08T03:50:06.978Z,932.00
2024-03-08T03:51:07.030Z,935.00
2024-03-08T03:52:06.996Z,929.00
2024-03-08T03:53:07.288Z,933.00
2024-03-08T03:54:07.062Z,927.00
2024-03-08T03:55:07.021Z,925.00
2024-03-08T03:56:06.991Z,927.00
2024-03-08T03:57:07.139Z,925.00
2024-03-08T03:58:07.035Z,928.00
2024-03-08T03:59:07.001Z,922.00
2024-03-08T04:00:07.070Z,921.00
2024-03-08T04:01:07.026Z,928.00
2024-03-08T04:02:06.999Z,927.00
2024-03-08T04:03:07.320Z,917.00
2024-03-08T04:04:07.006Z,920.00
2024-03-08T04:05:07.012Z,926.00
2024-03-08T04:06:07.080Z,919.00
2024-03-08T04:07:07.018Z,911.00
2024-03-08T04:08:07.052Z,925.00
2024-03-08T04:09:07.083Z,915.00
2024-03-08T04:10:07.016Z,918.00
2024-03-08T04:11:07.041Z,923.00
2024-03-08T04:12:07.061Z,912.00
2024-03-08T04:13:07.078Z,923.00
2024-03-08T04:14:07.016Z,915.00
2024-03-08T04:15:07.079Z,915.00
2024-03-08T04:16:07.029Z,910.00
2024-03-08T04:17:07.086Z,913.00
2024-03-08T04:18:07.345Z,919.00
2024-03-08T04:19:07.226Z,912.00
2024-03-08T04:20:07.276Z,919.00
2024-03-08T04:21:07.356Z,925.00
2024-03-08T04:22:07.380Z,911.00
2024-03-08T04:23:07.468Z,917.00
2024-03-08T04:24:07.518Z,915.00
2024-03-08T04:25:07.546Z,913.00
2024-03-08T04:26:07.609Z,915.00
2024-03-08T04:27:07.711Z,918.00
2024-03-08T04:28:07.668Z,910.00
2024-03-08T04:29:07.697Z,914.00
2024-03-08T04:30:07.797Z,912.00
2024-03-08T04:31:07.830Z,905.00
2024-03-08T04:32:07.897Z,917.00
2024-03-08T04:33:08.036Z,905.00
2024-03-08T04:34:08.092Z,907.00
2024-03-08T04:35:08.047Z,907.00
2024-03-08T04:36:08.171Z,908.00
2024-03-08T04:37:08.170Z,906.00
2024-03-08T04:38:15.462Z,600.00
2024-03-08T04:39:15.441Z,600.00
2024-03-08T04:40:15.412Z,600.00
2024-03-08T04:41:15.415Z,600.00
2024-03-08T04:42:15.467Z,600.00
2024-03-08T04:43:15.460Z,600.00
2024-03-08T04:44:15.438Z,601.00
2024-03-08T04:45:15.513Z,602.00
2024-03-08T04:46:15.426Z,603.00
2024-03-08T04:47:15.447Z,602.00
2024-03-08T04:48:15.581Z,602.00
2024-03-08T04:49:15.428Z,601.00
2024-03-08T04:50:15.427Z,604.00
2024-03-08T04:51:15.470Z,605.00
2024-03-08T04:52:15.432Z,606.00
2024-03-08T04:53:15.477Z,605.00
2024-03-08T04:54:15.514Z,606.00
2024-03-08T04:55:15.447Z,601.00
2024-03-08T04:56:15.430Z,602.00
2024-03-08T04:57:15.636Z,601.00
2024-03-08T04:58:15.479Z,605.00
2024-03-08T04:59:15.442Z,604.00
2024-03-08T05:00:15.493Z,603.00
2024-03-08T05:01:15.566Z,603.00
2024-03-08T05:02:15.460Z,601.00
2024-03-08T05:03:15.527Z,601.00
2024-03-08T05:04:15.448Z,601.00
2024-03-08T05:05:15.453Z,603.00
2024-03-08T05:06:15.537Z,600.00
2024-03-08T05:07:15.461Z,604.00
2024-03-08T05:08:15.446Z,602.00
2024-03-08T05:09:15.590Z,607.00
2024-03-08T05:10:15.505Z,609.00
2024-03-08T05:11:15.505Z,604.00
2024-03-08T05:12:15.536Z,603.00
2024-03-08T05:13:15.464Z,608.00
2024-03-08T05:14:15.461Z,604.00
2024-03-08T05:15:15.521Z,603.00
2024-03-08T05:16:15.499Z,607.00
2024-03-08T05:17:15.493Z,608.00
2024-03-08T05:18:15.681Z,604.00
2024-03-08T05:19:15.613Z,603.00
2024-03-08T05:20:15.641Z,602.00
2024-03-08T05:21:15.739Z,607.00
2024-03-08T05:22:15.685Z,604.00
2024-03-08T05:23:15.721Z,602.00
2024-03-08T05:24:15.824Z,602.00
2024-03-08T05:25:15.744Z,603.00
2024-03-08T05:26:15.780Z,604.00
2024-03-08T05:27:15.903Z,602.00
2024-03-08T05:28:15.902Z,609.00
2024-03-08T05:29:16.308Z,605.00
2024-03-08T05:30:16.126Z,604.00
2024-03-08T05:31:16.020Z,607.00
2024-03-08T05:32:16.043Z,606.00
2024-03-08T05:33:16.170Z,606.00
2024-03-08T05:34:16.080Z,606.00
2024-03-08T05:35:16.108Z,604.00
2024-03-08T05:36:16.280Z,604.00
2024-03-08T05:37:16.176Z,604.00
2024-03-08T05:38:16.182Z,603.00
2024-03-08T05:39:16.372Z,603.00
2024-03-08T05:40:18.024Z,605.00
2024-03-08T05:41:16.215Z,605.00
2024-03-08T05:42:16.363Z,602.00
2024-03-08T05:43:16.259Z,608.00
2024-03-08T05:44:16.221Z,606.00
2024-03-08T05:45:16.306Z,606.00
2024-03-08T05:46:16.242Z,603.00
2024-03-08T05:47:16.221Z,608.00
2024-03-08T05:48:16.301Z,601.00
2024-03-08T05:49:16.465Z,604.00
2024-03-08T05:50:16.230Z,610.00
2024-03-08T05:51:16.310Z,607.00
2024-03-08T05:52:16.234Z,609.00
2024-03-08T05:53:16.232Z,607.00
2024-03-08T05:54:18.371Z,610.00
2024-03-08T05:55:16.255Z,611.00
2024-03-08T05:56:16.235Z,610.00
2024-03-08T05:57:16.351Z,611.00
2024-03-08T05:58:16.256Z,612.00
2024-03-08T05:59:16.259Z,612.00
2024-03-08T06:00:16.298Z,612.00
2024-03-08T06:01:16.321Z,611.00
2024-03-08T06:02:16.285Z,614.00
2024-03-08T06:03:16.365Z,610.00
2024-03-08T06:04:16.247Z,622.00
2024-03-08T06:05:16.248Z,627.00
2024-03-08T06:06:16.330Z,630.00
2024-03-08T06:07:16.262Z,633.00
2024-03-08T06:08:16.323Z,625.00
2024-03-08T06:09:16.299Z,618.00
2024-03-08T06:10:16.259Z,621.00
2024-03-08T06:11:16.339Z,614.00
2024-03-08T06:12:16.283Z,607.00
2024-03-08T06:13:16.300Z,600.00
2024-03-08T06:14:16.278Z,597.00
2024-03-08T06:15:16.512Z,604.00
2024-03-08T06:16:16.290Z,605.00
2024-03-08T06:17:16.264Z,602.00
2024-03-08T06:18:16.394Z,603.00
2024-03-08T06:19:16.252Z,600.00
2024-03-08T06:20:16.281Z,603.00
2024-03-08T06:21:16.304Z,606.00
2024-03-08T06:22:16.301Z,602.00
2024-03-08T06:23:16.286Z,605.00
2024-03-08T06:24:16.450Z,597.00
2024-03-08T06:25:16.259Z,611.00
2024-03-08T06:26:16.253Z,603.00
2024-03-08T06:27:16.298Z,609.00
2024-03-08T06:28:16.292Z,606.00
2024-03-08T06:29:16.285Z,611.00
2024-03-08T06:30:16.370Z,607.00
2024-03-08T06:31:16.265Z,606.00
2024-03-08T06:32:16.266Z,600.00
2024-03-08T06:33:16.478Z,604.00
2024-03-08T06:34:16.309Z,600.00
2024-03-08T06:35:18.076Z,602.00
2024-03-08T06:36:16.400Z,605.00
2024-03-08T06:37:16.378Z,604.00
2024-03-08T06:38:16.469Z,602.00
2024-03-08T06:39:16.524Z,599.00
2024-03-08T06:40:16.580Z,605.00
2024-03-08T06:41:16.760Z,611.00
2024-03-08T06:42:39.195Z,605.00
2024-03-08T06:43:16.690Z,605.00
2024-03-08T06:44:16.667Z,607.00
2024-03-08T06:45:16.759Z,622.00
2024-03-08T06:46:16.727Z,797.00
2024-03-08T06:47:16.665Z,1209.00
2024-03-08T06:48:16.764Z,1379.00
2024-03-08T06:49:16.677Z,1297.00
2024-03-08T06:50:16.687Z,1177.00
2024-03-08T06:51:16.697Z,1115.00
2024-03-08T06:52:16.677Z,1048.00
2024-03-08T06:53:18.269Z,981.00
2024-03-08T06:54:16.736Z,951.00
2024-03-08T06:55:16.681Z,920.00
2024-03-08T06:56:16.693Z,905.00
2024-03-08T06:57:16.717Z,897.00
2024-03-08T06:58:38.691Z,896.00
2024-03-08T06:59:16.683Z,897.00
2024-03-08T07:00:16.778Z,902.00
2024-03-08T07:01:16.699Z,909.00
2024-03-08T07:02:16.691Z,920.00
2024-03-08T07:03:16.728Z,940.00
2024-03-08T07:04:16.763Z,956.00
2024-03-08T07:05:16.702Z,957.00
2024-03-08T07:06:16.821Z,950.00
2024-03-08T07:07:16.692Z,948.00
2024-03-08T07:08:16.707Z,954.00
2024-03-08T07:09:16.805Z,961.00
2024-03-08T07:10:16.714Z,958.00
2024-03-08T07:11:16.721Z,968.00
2024-03-08T07:12:16.790Z,987.00
2024-03-08T07:13:16.706Z,1007.00
2024-03-08T07:14:16.759Z,1027.00
2024-03-08T07:15:16.830Z,1048.00
2024-03-08T07:16:16.731Z,1053.00
2024-03-08T07:17:16.720Z,1054.00
2024-03-08T07:18:16.874Z,1066.00
2024-03-08T07:19:16.740Z,1073.00
2024-03-08T07:20:16.733Z,1083.00
2024-03-08T07:21:16.870Z,1086.00
2024-03-08T07:22:16.709Z,1116.00
2024-03-08T07:23:16.754Z,1114.00
2024-03-08T07:24:16.808Z,1135.00
2024-03-08T07:25:16.752Z,1147.00
2024-03-08T07:26:38.854Z,1151.00
2024-03-08T07:27:16.830Z,1152.00
2024-03-08T07:28:16.827Z,1157.00
2024-03-08T07:29:16.804Z,1168.00
2024-03-08T07:30:16.823Z,1179.00
2024-03-08T07:31:16.809Z,1193.00
2024-03-08T07:32:16.828Z,1213.00
2024-03-08T07:33:16.983Z,1235.00
2024-03-08T07:34:16.814Z,1223.00
2024-03-08T07:35:16.836Z,1242.00
2024-03-08T07:36:16.839Z,1255.00
2024-03-08T07:37:16.832Z,1262.00
2024-03-08T07:38:16.890Z,1263.00
2024-03-08T07:39:16.908Z,1278.00
2024-03-08T07:40:16.877Z,1278.00
2024-03-08T07:41:16.822Z,1301.00
2024-03-08T07:42:16.868Z,1297.00
2024-03-08T07:43:16.823Z,1304.00
2024-03-08T07:44:16.822Z,1316.00
2024-03-08T07:45:16.976Z,1310.00
2024-03-08T07:46:16.818Z,1324.00
2024-03-08T07:47:16.845Z,1334.00
2024-03-08T07:48:38.995Z,1346.00
2024-03-08T07:49:16.819Z,1347.00
2024-03-08T07:50:16.861Z,1352.00
2024-03-08T07:51:17.003Z,1362.00
2024-03-08T07:52:16.854Z,1374.00
2024-03-08T07:53:16.882Z,1402.00
2024-03-08T07:54:16.875Z,1411.00
2024-03-08T07:55:16.826Z,1414.00
2024-03-08T07:56:16.840Z,1418.00
2024-03-08T07:57:16.840Z,1415.00
2024-03-08T07:58:16.882Z,1419.00
2024-03-08T07:59:16.839Z,1406.00
2024-03-08T08:00:16.859Z,1423.00
2024-03-08T08:01:16.882Z,1414.00
2024-03-08T08:02:16.950Z,1438.00
2024-03-08T08:03:16.905Z,1427.00
2024-03-08T08:04:16.861Z,1442.00
2024-03-08T08:05:16.849Z,1456.00
2024-03-08T08:06:17.005Z,1476.00
2024-03-08T08:07:16.901Z,1474.00
2024-03-08T08:08:16.884Z,1496.00
2024-03-08T08:09:16.853Z,1514.00
2024-03-08T08:10:16.884Z,1518.00
2024-03-08T08:11:17.005Z,1521.00
2024-03-08T08:12:16.856Z,1534.00
2024-03-08T08:13:17.074Z,1537.00
2024-03-08T08:14:16.858Z,1544.00
2024-03-08T08:15:16.878Z,1557.00
2024-03-08T08:16:16.920Z,1566.00
2024-03-08T08:17:16.855Z,1576.00
2024-03-08T08:18:16.894Z,1584.00
2024-03-08T08:19:16.908Z,1585.00
2024-03-08T08:20:16.849Z,1581.00
2024-03-08T08:21:16.878Z,1593.00
2024-03-08T08:22:16.931Z,1578.00
2024-03-08T08:23:16.920Z,1583.00
2024-03-08T08:24:16.878Z,1584.00
2024-03-08T08:25:17.009Z,1590.00
2024-03-08T08:26:16.881Z,1592.00
2024-03-08T08:27:16.862Z,1595.00
2024-03-08T08:28:16.899Z,1596.00
2024-03-08T08:29:16.851Z,1606.00
2024-03-08T08:30:16.853Z,1616.00
2024-03-08T08:31:16.900Z,1614.00
2024-03-08T08:32:16.948Z,1624.00
2024-03-08T08:33:17.049Z,1642.00
2024-03-08T08:34:17.133Z,1667.00
2024-03-08T08:35:17.164Z,1681.00
2024-03-08T08:36:17.263Z,1709.00
2024-03-08T08:37:18.586Z,1719.00
2024-03-08T08:38:17.373Z,1732.00
2024-03-08T08:39:17.309Z,1745.00
2024-03-08T08:40:17.364Z,1749.00
2024-03-08T08:41:17.316Z,1754.00
2024-03-08T08:42:17.316Z,1773.00
2024-03-08T08:43:17.406Z,1772.00
2024-03-08T08:44:17.490Z,1783.00
2024-03-08T08:45:18.287Z,1788.00
2024-03-08T08:46:17.352Z,1796.00
2024-03-08T08:47:17.322Z,1794.00
2024-03-08T08:48:17.360Z,1791.00
2024-03-08T08:49:17.393Z,1798.00
2024-03-08T08:50:17.398Z,1799.00
2024-03-08T08:51:17.296Z,1794.00
2024-03-08T08:52:17.789Z,1795.00
2024-03-08T08:53:17.362Z,1777.00
2024-03-08T08:54:17.315Z,1770.00
2024-03-08T08:55:17.401Z,1768.00
2024-03-08T08:56:17.318Z,1751.00
2024-03-08T08:57:17.302Z,1743.00
2024-03-08T08:58:17.373Z,1723.00
2024-03-08T08:59:20.361Z,1728.00
2024-03-08T09:00:17.341Z,1728.00
2024-03-08T09:01:17.354Z,1728.00
2024-03-08T09:02:18.155Z,1726.00
2024-03-08T09:03:17.314Z,1724.00
2024-03-08T09:04:17.376Z,1720.00
2024-03-08T09:05:17.334Z,1721.00
2024-03-08T09:06:17.332Z,1713.00
2024-03-08T09:07:17.425Z,1718.00
2024-03-08T09:08:17.365Z,1720.00
2024-03-08T09:09:17.320Z,1722.00
2024-03-08T09:10:18.417Z,1720.00
2024-03-08T09:11:17.389Z,1727.00
2024-03-08T09:12:17.350Z,1727.00
2024-03-08T09:13:24.951Z,1730.00
2024-03-08T09:14:18.369Z,1730.00
2024-03-08T09:15:17.328Z,1731.00
2024-03-08T09:16:18.233Z,1741.00
2024-03-08T09:17:17.421Z,1742.00
2024-03-08T09:18:17.329Z,1770.00
2024-03-08T09:19:17.404Z,1775.00
2024-03-08T09:20:17.328Z,1791.00
2024-03-08T09:21:17.344Z,1792.00
2024-03-08T09:22:17.415Z,1802.00
2024-03-08T09:23:17.374Z,1809.00
2024-03-08T09:24:17.347Z,1806.00
2024-03-08T09:25:17.420Z,1801.00
2024-03-08T09:26:23.237Z,1810.00
2024-03-08T09:27:18.365Z,1811.00
2024-03-08T09:28:17.726Z,1811.00
2024-03-08T09:29:17.358Z,1813.00
2024-03-08T09:30:17.360Z,1812.00
2024-03-08T09:31:17.409Z,1817.00
2024-03-08T09:32:17.360Z,1807.00
2024-03-08T09:33:17.449Z,1796.00
2024-03-08T09:34:20.604Z,1801.00
2024-03-08T09:35:18.383Z,1788.00
2024-03-08T09:36:17.379Z,1781.00
2024-03-08T09:37:17.403Z,1762.00
2024-03-08T09:38:17.420Z,1732.00
2024-03-08T09:39:17.382Z,1728.00
2024-03-08T09:40:17.400Z,1709.00
2024-03-08T09:41:17.388Z,1696.00
2024-03-08T09:42:17.455Z,1694.00
2024-03-08T09:43:17.730Z,1690.00
2024-03-08T09:44:17.375Z,1679.00
2024-03-08T09:45:17.403Z,1668.00
2024-03-08T09:46:17.450Z,1663.00
2024-03-08T09:47:17.496Z,1656.00
2024-03-08T09:48:17.429Z,1647.00
2024-03-08T09:49:17.499Z,1652.00
2024-03-08T09:50:17.399Z,1652.00
2024-03-08T09:51:17.452Z,1642.00
2024-03-08T09:52:17.525Z,1642.00
2024-03-08T09:53:17.589Z,1633.00
2024-03-08T09:54:22.869Z,1647.00
2024-03-08T09:55:18.692Z,1647.00
2024-03-08T09:56:17.610Z,1648.00
2024-03-08T09:57:19.637Z,1650.00
2024-03-08T09:58:17.672Z,1666.00
2024-03-08T09:59:17.634Z,1677.00
2024-03-08T10:00:17.701Z,1677.00
2024-03-08T10:01:17.705Z,1687.00
2024-03-08T10:02:17.935Z,1674.00
2024-03-08T10:03:17.669Z,1688.00
2024-03-08T10:04:17.680Z,1686.00
2024-03-08T10:05:17.646Z,1685.00
2024-03-08T10:06:17.621Z,1692.00
2024-03-08T10:07:17.632Z,1690.00
2024-03-08T10:08:17.664Z,1683.00
2024-03-08T10:09:17.638Z,1684.00
2024-03-08T10:10:17.698Z,1694.00
2024-03-08T10:11:17.695Z,1687.00
2024-03-08T10:12:17.672Z,1694.00
2024-03-08T10:13:17.732Z,1694.00
2024-03-08T10:14:19.253Z,1683.00
2024-03-08T10:15:17.634Z,1679.00
2024-03-08T10:16:17.646Z,1687.00
2024-03-08T10:17:17.639Z,1683.00
2024-03-08T10:18:17.697Z,1677.00
2024-03-08T10:19:17.673Z,1665.00
2024-03-08T10:20:17.668Z,1673.00
2024-03-08T10:21:17.642Z,1667.00
2024-03-08T10:22:17.672Z,1668.00
2024-03-08T10:23:17.712Z,1655.00
2024-03-08T10:24:17.749Z,1660.00
2024-03-08T10:25:17.851Z,1650.00
2024-03-08T10:26:17.895Z,1657.00
2024-03-08T10:27:17.952Z,1648.00
2024-03-08T10:28:18.073Z,1624.00
2024-03-08T10:29:18.091Z,1638.00
2024-03-08T10:30:18.203Z,1632.00
2024-03-08T10:31:19.483Z,1638.00
2024-03-08T10:32:18.271Z,1624.00
2024-03-08T10:33:18.277Z,1629.00
2024-03-08T10:34:18.425Z,1616.00
2024-03-08T10:35:18.443Z,1618.00
2024-03-08T10:36:18.507Z,1610.00
2024-03-08T10:37:18.654Z,1609.00
2024-03-08T10:38:18.655Z,1605.00
2024-03-08T10:39:18.760Z,1599.00
2024-03-08T10:40:18.827Z,1595.00
2024-03-08T10:41:18.861Z,1589.00
2024-03-08T10:42:18.890Z,1588.00
2024-03-08T10:43:18.958Z,1592.00
2024-03-08T10:44:19.017Z,1588.00
2024-03-08T10:45:19.020Z,1576.00
2024-03-08T10:46:19.122Z,1565.00
2024-03-08T10:47:19.164Z,1573.00
2024-03-08T10:48:19.260Z,1569.00
2024-03-08T10:49:19.293Z,1560.00
2024-03-08T10:50:19.311Z,1558.00
2024-03-08T10:51:19.382Z,1552.00
2024-03-08T10:52:19.452Z,1553.00
2024-03-08T10:53:19.486Z,1542.00
2024-03-08T10:54:19.570Z,1541.00
2024-03-08T10:55:19.658Z,1538.00
2024-03-08T10:56:19.644Z,1534.00
2024-03-08T10:57:19.699Z,1529.00
2024-03-08T10:58:19.754Z,1517.00
2024-03-08T10:59:19.765Z,1521.00
2024-03-08T11:00:19.798Z,1510.00
2024-03-08T11:01:19.892Z,1506.00
2024-03-08T11:02:19.860Z,1510.00
2024-03-08T11:03:19.864Z,1505.00
2024-03-08T11:04:19.966Z,1496.00
2024-03-08T11:05:19.988Z,1496.00
2024-03-08T11:06:20.029Z,1490.00
2024-03-08T11:07:20.097Z,1500.00
2024-03-08T11:08:20.147Z,1485.00
2024-03-08T11:09:20.185Z,1484.00
2024-03-08T11:10:20.269Z,1469.00
2024-03-08T11:11:20.355Z,1470.00
2024-03-08T11:12:20.283Z,1471.00
2024-03-08T11:13:20.330Z,1462.00
2024-03-08T11:14:20.380Z,1461.00
2024-03-08T11:15:20.452Z,1460.00
2024-03-08T11:16:20.355Z,1451.00
2024-03-08T11:17:20.365Z,1448.00
2024-03-08T11:18:20.423Z,1440.00
2024-03-08T11:19:20.411Z,1438.00
2024-03-08T11:20:20.373Z,1439.00
2024-03-08T11:21:20.410Z,1435.00
2024-03-08T11:22:20.423Z,1435.00
2024-03-08T11:23:20.399Z,1433.00
2024-03-08T11:24:20.421Z,1426.00
2024-03-08T11:25:20.471Z,1417.00
2024-03-08T11:26:20.474Z,1421.00
2024-03-08T11:27:20.482Z,1418.00
2024-03-08T11:28:20.967Z,1415.00
2024-03-08T11:29:20.486Z,1410.00
2024-03-08T11:30:20.523Z,1411.00
2024-03-08T11:31:20.553Z,1401.00
2024-03-08T11:32:20.503Z,1394.00
2024-03-08T11:33:20.492Z,1395.00
2024-03-08T11:34:20.551Z,1384.00
2024-03-08T11:35:20.504Z,1388.00
2024-03-08T11:36:20.516Z,1381.00
2024-03-08T11:37:20.557Z,1375.00
2024-03-08T11:38:20.513Z,1378.00
2024-03-08T11:39:20.561Z,1376.00
2024-03-08T11:40:20.823Z,1367.00
2024-03-08T11:41:20.562Z,1366.00
2024-03-08T11:42:20.654Z,1369.00
2024-03-08T11:43:20.584Z,1356.00
2024-03-08T11:44:20.569Z,1339.00
2024-03-08T11:45:20.647Z,1351.00
2024-03-08T11:46:20.648Z,1343.00
2024-03-08T11:47:20.643Z,1338.00
2024-03-08T11:48:20.722Z,1343.00
2024-03-08T11:49:20.720Z,1340.00
2024-03-08T11:50:20.835Z,1334.00
2024-03-08T11:51:20.711Z,1337.00
2024-03-08T11:52:20.787Z,1335.00
2024-03-08T11:53:20.721Z,1316.00
2024-03-08T11:54:20.770Z,1311.00
2024-03-08T11:55:21.804Z,1315.00
2024-03-08T11:56:20.776Z,1312.00
2024-03-08T11:57:20.788Z,1301.00
2024-03-08T11:58:20.839Z,1306.00
2024-03-08T11:59:20.802Z,1302.00
2024-03-08T12:00:20.823Z,1299.00
2024-03-08T12:01:20.866Z,1289.00
2024-03-08T12:02:20.878Z,1278.00
2024-03-08T12:03:20.857Z,1298.00
2024-03-08T12:04:20.935Z,1298.00
2024-03-08T12:05:20.970Z,1289.00
2024-03-08T12:06:20.872Z,1278.00
2024-03-08T12:07:20.911Z,1276.00
2024-03-08T12:08:20.900Z,1278.00
2024-03-08T12:09:20.924Z,1271.00
2024-03-08T12:10:20.937Z,1265.00
2024-03-08T12:11:21.086Z,1264.00
2024-03-08T12:12:20.910Z,1258.00
2024-03-08T12:13:20.948Z,1261.00
2024-03-08T12:14:20.965Z,1256.00
2024-03-08T12:15:21.101Z,1253.00
2024-03-08T12:16:21.026Z,1261.00